createdAt,value
2018-08-30T00:01:34.719Z,18.20
2018-08-30T00:04:03.280Z,18.20
2018-08-30T00:06:31.845Z,18.10
2018-08-30T00:09:00.439Z,18.10
2018-08-30T00:11:28.923Z,18.10
2018-08-30T00:13:57.587Z,18.10
2018-08-30T00:16:26.270Z,18.00
2018-08-30T00:18:54.755Z,18.00
2018-08-30T00:21:23.231Z,17.90
2018-08-30T00:23:51.842Z,17.90
2018-08-30T00:26:20.405Z,17.90
2018-08-30T00:28:48.878Z,17.90
2018-08-30T00:31:17.551Z,17.90
2018-08-30T00:33:46.045Z,17.80
2018-08-30T00:36:14.906Z,17.80
2018-08-30T00:38:43.598Z,17.80
2018-08-30T00:41:12.102Z,17.70
2018-08-30T00:43:40.646Z,17.70
2018-08-30T00:46:09.527Z,17.70
2018-08-30T00:48:38.087Z,17.70
2018-08-30T00:51:06.627Z,17.70
2018-08-30T00:53:35.221Z,17.70
2018-08-30T00:56:03.767Z,17.60
2018-08-30T00:58:32.270Z,17.60
2018-08-30T01:01:00.847Z,17.60
2018-08-30T01:03:29.364Z,17.50
2018-08-30T01:05:58.039Z,17.50
2018-08-30T01:08:26.567Z,17.50
2018-08-30T01:10:55.247Z,15.80
2018-08-30T01:13:23.720Z,17.30
2018-08-30T01:15:52.195Z,17.20
2018-08-30T01:18:21.348Z,17.10
2018-08-30T01:20:49.829Z,17.10
2018-08-30T01:23:18.433Z,17.00
2018-08-30T01:25:46.999Z,17.00
2018-08-30T01:28:15.614Z,16.90
2018-08-30T01:30:44.195Z,16.90
2018-08-30T01:33:12.702Z,16.80
2018-08-30T01:35:41.263Z,16.80
2018-08-30T01:38:09.853Z,16.90
2018-08-30T01:40:38.439Z,16.80
2018-08-30T01:43:07.036Z,16.80
2018-08-30T01:45:35.591Z,16.70
2018-08-30T01:48:04.072Z,16.70
2018-08-30T01:50:32.654Z,16.70
2018-08-30T01:53:01.250Z,16.60
2018-08-30T01:55:30.047Z,16.60
2018-08-30T01:57:58.571Z,16.60
2018-08-30T02:00:27.215Z,16.60
2018-08-30T02:02:55.687Z,16.50
2018-08-30T02:05:24.187Z,16.50
2018-08-30T02:07:52.687Z,16.50
2018-08-30T02:10:21.491Z,16.50
2018-08-30T02:12:50.024Z,16.50
2018-08-30T02:15:18.595Z,16.50
2018-08-30T02:17:47.068Z,16.50
2018-08-30T02:20:15.550Z,16.40
2018-08-30T02:22:44.118Z,16.50
2018-08-30T02:25:12.591Z,16.40
2018-08-30T02:27:41.185Z,16.30
2018-08-30T02:30:09.762Z,16.30
2018-08-30T02:32:38.422Z,16.20
2018-08-30T02:35:07.135Z,16.20
2018-08-30T02:37:35.794Z,16.30
2018-08-30T02:40:04.620Z,16.30
2018-08-30T02:42:33.111Z,16.20
2018-08-30T02:45:01.638Z,16.30
2018-08-30T02:47:30.178Z,16.20
2018-08-30T02:49:58.687Z,16.10
2018-08-30T02:52:27.190Z,16.00
2018-08-30T02:54:55.729Z,16.00
2018-08-30T02:57:24.387Z,16.00
2018-08-30T02:59:52.875Z,15.90
2018-08-30T03:02:21.436Z,15.90
2018-08-30T03:04:49.898Z,15.90
2018-08-30T03:07:18.367Z,15.90
2018-08-30T03:09:46.936Z,15.90
2018-08-30T03:12:15.435Z,15.90
2018-08-30T03:14:45.010Z,15.90
2018-08-30T03:17:13.518Z,15.90
2018-08-30T03:19:42.387Z,15.90
2018-08-30T03:22:10.872Z,15.90
2018-08-30T03:24:39.342Z,15.80
2018-08-30T03:27:07.951Z,15.90
2018-08-30T03:29:36.579Z,15.90
2018-08-30T03:32:05.595Z,15.80
2018-08-30T03:34:34.147Z,15.90
2018-08-30T03:37:02.645Z,15.80
2018-08-30T03:39:31.314Z,15.70
2018-08-30T03:41:59.778Z,15.70
2018-08-30T03:44:28.475Z,15.70
2018-08-30T03:46:56.955Z,15.70
2018-08-30T03:49:25.548Z,15.60
2018-08-30T03:51:54.047Z,15.60
2018-08-30T03:54:22.549Z,15.60
2018-08-30T03:56:51.235Z,15.70
2018-08-30T03:59:19.735Z,15.70
2018-08-30T04:01:48.394Z,15.70
2018-08-30T04:04:17.038Z,15.70
2018-08-30T04:06:45.569Z,15.70
2018-08-30T04:09:14.069Z,15.70
2018-08-30T04:11:42.655Z,15.70
2018-08-30T04:14:11.233Z,15.70
2018-08-30T04:16:39.731Z,15.70
2018-08-30T04:19:08.882Z,15.60
2018-08-30T04:21:37.881Z,15.70
2018-08-30T04:24:07.926Z,15.70
2018-08-30T04:26:36.414Z,15.60
2018-08-30T04:29:05.080Z,15.60
2018-08-30T04:31:33.802Z,15.60
2018-08-30T04:34:02.222Z,15.60
2018-08-30T04:36:30.872Z,15.60
2018-08-30T04:38:59.398Z,15.60
2018-08-30T04:41:28.368Z,15.60
2018-08-30T04:43:56.878Z,15.70
2018-08-30T04:46:25.367Z,15.70
2018-08-30T04:48:53.982Z,15.60
2018-08-30T04:51:22.483Z,15.70
2018-08-30T04:53:51.250Z,15.60
2018-08-30T04:56:19.736Z,15.60
2018-08-30T04:58:48.273Z,15.60
2018-08-30T05:01:16.757Z,15.70
2018-08-30T05:03:45.479Z,15.70
2018-08-30T05:06:13.971Z,15.70
2018-08-30T05:08:42.538Z,15.70
2018-08-30T05:11:11.088Z,15.70
2018-08-30T05:13:39.578Z,15.80
2018-08-30T05:16:08.159Z,15.80
2018-08-30T05:18:36.716Z,15.70
2018-08-30T05:21:05.426Z,15.70
2018-08-30T05:23:33.919Z,15.70
2018-08-30T05:26:02.530Z,15.70
2018-08-30T05:28:31.394Z,15.70
2018-08-30T05:31:00.048Z,15.70
2018-08-30T05:33:28.579Z,15.70
2018-08-30T05:35:57.221Z,15.70
2018-08-30T05:38:25.807Z,15.70
2018-08-30T05:40:54.314Z,15.70
2018-08-30T05:43:22.875Z,15.60
2018-08-30T05:45:51.549Z,15.60
2018-08-30T05:48:20.265Z,15.70
2018-08-30T05:50:48.803Z,15.70
2018-08-30T05:53:17.602Z,15.70
2018-08-30T05:55:46.333Z,15.70
2018-08-30T05:58:15.158Z,15.70
2018-08-30T06:00:43.805Z,15.70
2018-08-30T06:03:12.315Z,15.70
2018-08-30T06:05:40.890Z,15.70
2018-08-30T06:08:09.488Z,15.70
2018-08-30T06:10:38.407Z,15.60
2018-08-30T06:13:07.084Z,15.60
2018-08-30T06:15:35.812Z,15.60
2018-08-30T06:18:04.307Z,15.60
2018-08-30T06:20:33.082Z,15.70
2018-08-30T06:23:01.552Z,15.70
2018-08-30T06:25:30.106Z,15.70
2018-08-30T06:27:58.962Z,15.70
2018-08-30T06:30:27.590Z,15.70
2018-08-30T06:32:56.369Z,15.70
2018-08-30T06:35:25.628Z,15.70
2018-08-30T06:37:54.156Z,15.70
2018-08-30T06:40:22.955Z,15.60
2018-08-30T06:42:51.587Z,15.70
2018-08-30T06:45:20.277Z,15.60
2018-08-30T06:47:48.741Z,15.70
2018-08-30T06:50:17.283Z,15.60
2018-08-30T06:52:45.758Z,15.70
2018-08-30T06:55:14.343Z,15.70
2018-08-30T06:57:42.822Z,15.70
2018-08-30T07:00:11.590Z,15.70
2018-08-30T07:02:40.191Z,15.70
2018-08-30T07:05:08.690Z,15.70
2018-08-30T07:07:37.395Z,15.70
2018-08-30T07:10:06.641Z,15.70
2018-08-30T07:12:35.212Z,15.80
2018-08-30T07:15:04.299Z,15.80
2018-08-30T07:17:32.936Z,15.80
2018-08-30T07:20:01.414Z,15.80
2018-08-30T07:22:30.126Z,15.80
2018-08-30T07:24:58.627Z,15.80
2018-08-30T07:27:27.094Z,15.80
2018-08-30T07:29:55.749Z,15.80
2018-08-30T07:32:24.254Z,15.80
2018-08-30T07:34:53.003Z,15.80
2018-08-30T07:37:21.633Z,15.90
2018-08-30T07:39:50.395Z,15.90
2018-08-30T07:42:18.982Z,15.90
2018-08-30T07:44:47.554Z,15.80
2018-08-30T07:47:16.117Z,15.90
2018-08-30T07:49:44.701Z,15.90
2018-08-30T07:52:13.224Z,16.00
2018-08-30T07:54:41.803Z,16.00
2018-08-30T07:57:10.278Z,16.00
2018-08-30T07:59:38.841Z,16.00
2018-08-30T08:02:07.752Z,16.00
2018-08-30T08:04:36.275Z,16.00
2018-08-30T08:07:05.270Z,16.00
2018-08-30T08:09:33.746Z,16.00
2018-08-30T08:12:02.593Z,16.00
2018-08-30T08:14:31.297Z,16.10
2018-08-30T08:16:59.816Z,16.10
2018-08-30T08:19:28.331Z,16.10
2018-08-30T08:21:57.102Z,16.10
2018-08-30T08:24:25.815Z,16.10
2018-08-30T08:26:54.470Z,16.10
2018-08-30T08:29:23.067Z,16.10
2018-08-30T08:31:51.729Z,16.10
2018-08-30T08:34:20.587Z,16.10
2018-08-30T08:36:49.292Z,16.10
2018-08-30T08:39:17.912Z,16.10
2018-08-30T08:41:46.473Z,16.20
2018-08-30T08:44:15.267Z,16.20
2018-08-30T08:46:43.882Z,16.20
2018-08-30T08:49:12.354Z,16.20
2018-08-30T08:51:41.013Z,16.20
2018-08-30T08:54:09.498Z,16.20
2018-08-30T08:56:37.995Z,16.20
2018-08-30T08:59:06.532Z,16.30
2018-08-30T09:01:35.239Z,16.30
2018-08-30T09:04:04.184Z,16.40
2018-08-30T09:06:32.754Z,16.40
2018-08-30T09:09:01.274Z,16.50
2018-08-30T09:11:29.798Z,16.60
2018-08-30T09:13:58.347Z,16.60
2018-08-30T09:16:27.050Z,16.70
2018-08-30T09:18:55.630Z,16.70
2018-08-30T09:21:24.188Z,16.70
2018-08-30T09:23:52.651Z,16.80
2018-08-30T09:26:21.343Z,16.90
2018-08-30T09:28:49.866Z,17.00
2018-08-30T09:31:18.558Z,17.00
2018-08-30T09:33:47.051Z,17.00
2018-08-30T09:36:15.944Z,17.00
2018-08-30T09:38:44.445Z,17.00
2018-08-30T09:41:13.119Z,17.10
2018-08-30T09:43:41.671Z,17.20
2018-08-30T09:46:10.211Z,17.20
2018-08-30T09:48:38.972Z,17.30
2018-08-30T09:51:07.574Z,17.30
2018-08-30T09:53:36.287Z,17.40
2018-08-30T09:56:05.414Z,17.50
2018-08-30T09:58:33.950Z,17.50
2018-08-30T10:01:08.046Z,17.50
2018-08-30T10:03:36.656Z,17.40
2018-08-30T10:06:05.247Z,17.40
2018-08-30T10:08:33.743Z,17.40
2018-08-30T10:11:02.236Z,17.40
2018-08-30T10:13:30.895Z,17.40
2018-08-30T10:15:59.507Z,17.50
2018-08-30T10:18:28.099Z,17.60
2018-08-30T10:20:56.802Z,17.60
2018-08-30T10:23:26.716Z,17.80
2018-08-30T10:25:55.458Z,17.90
2018-08-30T10:28:23.962Z,17.90
2018-08-30T10:30:52.459Z,18.00
2018-08-30T10:33:20.988Z,18.00
2018-08-30T10:35:49.573Z,18.10
2018-08-30T10:38:18.228Z,18.10
2018-08-30T10:40:46.727Z,18.00
2018-08-30T10:43:15.337Z,17.90
2018-08-30T10:45:43.827Z,17.90
2018-08-30T10:48:12.414Z,17.90
2018-08-30T10:50:40.951Z,17.90
2018-08-30T10:53:09.508Z,17.90
2018-08-30T10:55:38.227Z,18.00
2018-08-30T10:58:06.816Z,18.10
2018-08-30T11:00:35.971Z,18.20
2018-08-30T11:03:04.555Z,18.20
2018-08-30T11:05:33.642Z,18.40
2018-08-30T11:08:02.742Z,18.50
2018-08-30T11:10:31.455Z,18.50
2018-08-30T11:13:00.114Z,18.50
2018-08-30T11:15:28.719Z,18.50
2018-08-30T11:17:57.378Z,18.70
2018-08-30T11:20:26.027Z,18.80
2018-08-30T11:22:54.631Z,18.80
2018-08-30T11:25:23.131Z,18.70
2018-08-30T11:27:51.715Z,18.70
2018-08-30T11:30:20.587Z,18.70
2018-08-30T11:32:49.362Z,18.70
2018-08-30T11:35:18.103Z,18.80
2018-08-30T11:37:46.793Z,18.80
2018-08-30T11:40:15.302Z,18.80
2018-08-30T11:42:43.791Z,18.70
2018-08-30T11:45:12.312Z,18.70
2018-08-30T11:47:40.968Z,18.70
2018-08-30T11:50:09.481Z,18.80
2018-08-30T11:52:38.072Z,18.90
2018-08-30T11:55:07.055Z,18.90
2018-08-30T11:57:35.954Z,18.90
2018-08-30T12:00:04.832Z,18.90
2018-08-30T12:02:34.498Z,19.00
2018-08-30T12:05:03.934Z,19.10
2018-08-30T12:07:32.511Z,19.10
2018-08-30T12:10:01.213Z,19.10
2018-08-30T12:12:30.188Z,19.10
2018-08-30T12:14:59.151Z,19.20
2018-08-30T12:17:27.739Z,19.20
2018-08-30T12:19:56.202Z,19.20
2018-08-30T12:22:24.698Z,19.30
2018-08-30T12:24:53.254Z,19.30
2018-08-30T12:27:21.842Z,19.30
2018-08-30T12:29:50.486Z,19.30
2018-08-30T12:32:19.111Z,19.30
2018-08-30T12:34:47.784Z,19.30
2018-08-30T12:37:16.242Z,19.30
2018-08-30T12:39:44.834Z,19.30
2018-08-30T12:42:13.298Z,19.30
2018-08-30T12:44:42.018Z,19.30
2018-08-30T12:47:10.523Z,19.30
2018-08-30T12:49:39.583Z,19.40
2018-08-30T12:52:08.467Z,19.30
2018-08-30T12:54:37.081Z,19.30
2018-08-30T12:57:05.879Z,19.20
2018-08-30T12:59:39.788Z,19.10
2018-08-30T13:02:08.755Z,19.10
2018-08-30T13:04:37.731Z,19.00
2018-08-30T13:07:07.172Z,18.90
2018-08-30T13:09:36.006Z,18.90
2018-08-30T13:12:04.706Z,19.00
2018-08-30T13:14:33.326Z,19.00
2018-08-30T13:17:01.690Z,19.10
2018-08-30T13:19:30.732Z,19.10
2018-08-30T13:21:59.104Z,19.00
2018-08-30T13:24:28.154Z,19.00
2018-08-30T13:26:56.439Z,19.10
2018-08-30T13:29:25.109Z,18.90
2018-08-30T13:31:53.789Z,18.90
2018-08-30T13:34:22.691Z,19.00
2018-08-30T13:36:51.177Z,19.00
2018-08-30T13:39:20.364Z,19.10
2018-08-30T13:41:48.826Z,19.20
2018-08-30T13:44:17.131Z,19.30
2018-08-30T13:46:45.730Z,19.30
2018-08-30T13:49:14.348Z,19.30
2018-08-30T13:51:43.329Z,19.30
2018-08-30T13:54:11.915Z,19.30
2018-08-30T13:56:40.520Z,19.20
2018-08-30T13:59:09.056Z,19.30
2018-08-30T14:01:37.502Z,19.40
2018-08-30T14:04:06.071Z,19.40
2018-08-30T14:06:34.672Z,19.40
2018-08-30T14:09:03.201Z,19.40
2018-08-30T14:11:31.814Z,19.40
2018-08-30T14:14:00.264Z,19.30
2018-08-30T14:16:28.794Z,19.40
2018-08-30T14:18:57.564Z,19.50
2018-08-30T14:21:26.204Z,19.50
2018-08-30T14:23:54.888Z,19.50
2018-08-30T14:26:23.500Z,19.50
2018-08-30T14:28:52.028Z,19.40
2018-08-30T14:31:20.635Z,19.50
2018-08-30T14:33:49.171Z,19.50
2018-08-30T14:36:17.708Z,19.50
2018-08-30T14:38:46.231Z,19.40
2018-08-30T14:41:15.045Z,19.30
2018-08-30T14:43:43.632Z,19.30
2018-08-30T14:46:12.267Z,19.30
2018-08-30T14:48:40.851Z,19.30
2018-08-30T14:51:09.544Z,19.30
2018-08-30T14:53:38.121Z,19.20
2018-08-30T14:56:06.845Z,19.20
2018-08-30T14:58:35.302Z,19.10
2018-08-30T15:01:03.969Z,19.00
2018-08-30T15:03:32.606Z,18.90
2018-08-30T15:06:01.560Z,18.80
2018-08-30T15:08:30.056Z,18.70
2018-08-30T15:10:58.785Z,18.70
2018-08-30T15:13:27.399Z,18.70
2018-08-30T15:15:55.968Z,18.60
2018-08-30T15:18:24.767Z,18.60
2018-08-30T15:20:53.428Z,18.50
2018-08-30T15:23:22.173Z,18.50
2018-08-30T15:25:51.029Z,18.50
2018-08-30T15:28:19.661Z,18.50
2018-08-30T15:30:48.215Z,18.50
2018-08-30T15:33:16.760Z,18.50
2018-08-30T15:35:45.314Z,18.60
2018-08-30T15:38:13.788Z,18.60
2018-08-30T15:40:42.926Z,18.60
2018-08-30T15:43:11.558Z,18.70
2018-08-30T15:45:40.178Z,18.60
2018-08-30T15:48:09.023Z,18.60
2018-08-30T15:50:37.708Z,18.60
2018-08-30T15:53:06.465Z,18.50
2018-08-30T15:55:35.136Z,18.50
2018-08-30T15:58:03.984Z,18.50
2018-08-30T16:00:32.466Z,18.50
2018-08-30T16:03:01.142Z,18.40
2018-08-30T16:05:29.778Z,18.40
2018-08-30T16:07:58.331Z,18.40
2018-08-30T16:10:26.865Z,18.40
2018-08-30T16:12:55.586Z,18.30
2018-08-30T16:15:24.282Z,18.30
2018-08-30T16:17:52.913Z,18.20
2018-08-30T16:20:21.642Z,18.30
2018-08-30T16:23:07.024Z,18.30
2018-08-30T16:25:35.871Z,18.30
2018-08-30T16:28:05.308Z,18.30
2018-08-30T16:30:34.089Z,18.20
2018-08-30T16:33:02.553Z,18.20
2018-08-30T16:35:31.071Z,18.20
2018-08-30T16:37:59.681Z,18.20
2018-08-30T16:40:28.527Z,18.20
2018-08-30T16:42:57.168Z,18.20
2018-08-30T16:45:25.717Z,18.20
2018-08-30T16:47:54.250Z,18.20
2018-08-30T16:50:22.780Z,18.10
2018-08-30T16:52:51.537Z,18.10
2018-08-30T16:55:20.150Z,18.10
2018-08-30T16:57:48.690Z,18.00
2018-08-30T17:00:17.316Z,18.00
2018-08-30T17:02:45.911Z,18.00
2018-08-30T17:05:14.551Z,18.00
2018-08-30T17:07:43.163Z,18.00
2018-08-30T17:10:11.698Z,18.00
2018-08-30T17:12:40.543Z,17.90
2018-08-30T17:15:09.223Z,17.90
2018-08-30T17:17:37.915Z,17.80
2018-08-30T17:20:09.591Z,17.70
2018-08-30T17:22:38.126Z,17.70
2018-08-30T17:25:06.851Z,17.70
2018-08-30T17:27:35.426Z,17.70
2018-08-30T17:30:04.757Z,17.60
2018-08-30T17:32:33.343Z,17.60
2018-08-30T17:35:01.907Z,17.50
2018-08-30T17:37:30.508Z,17.50
2018-08-30T17:39:59.134Z,17.40
2018-08-30T17:42:27.738Z,17.40
2018-08-30T17:44:56.332Z,17.30
2018-08-30T17:47:25.088Z,17.20
2018-08-30T17:49:53.857Z,17.20
2018-08-30T17:52:22.485Z,17.20
2018-08-30T17:54:51.175Z,17.20
2018-08-30T17:57:20.016Z,17.10
2018-08-30T17:59:48.846Z,17.10
2018-08-30T18:02:17.435Z,17.00
2018-08-30T18:04:46.328Z,17.10
2018-08-30T18:07:15.438Z,17.00
2018-08-30T18:09:43.913Z,17.00
2018-08-30T18:12:12.493Z,16.90
2018-08-30T18:14:41.257Z,17.00
2018-08-30T18:17:09.816Z,16.90
2018-08-30T18:19:38.471Z,16.90
2018-08-30T18:22:07.348Z,17.00
2018-08-30T18:24:35.979Z,17.00
2018-08-30T18:27:05.380Z,17.00
2018-08-30T18:29:33.990Z,17.00
2018-08-30T18:32:02.809Z,16.90
2018-08-30T18:34:32.265Z,16.90
2018-08-30T18:37:01.085Z,16.90
2018-08-30T18:39:29.883Z,16.80
2018-08-30T18:41:58.737Z,16.80
2018-08-30T18:46:54.759Z,16.80
2018-08-30T18:49:23.698Z,16.80
2018-08-30T18:51:52.329Z,16.90
2018-08-30T18:54:20.992Z,16.80
2018-08-30T18:56:49.589Z,16.80
2018-08-30T18:59:18.178Z,16.80
2018-08-30T19:01:46.893Z,16.90
2018-08-30T19:04:15.540Z,16.90
2018-08-30T19:06:44.232Z,16.90
2018-08-30T19:09:13.070Z,16.90
2018-08-30T19:11:42.270Z,16.90
2018-08-30T19:14:11.462Z,16.90
2018-08-30T19:16:45.810Z,16.90
2018-08-30T19:19:17.930Z,16.90
2018-08-30T19:21:46.783Z,16.80
2018-08-30T19:24:21.065Z,16.80
2018-08-30T19:26:49.706Z,16.80
2018-08-30T19:29:18.328Z,16.90
2018-08-30T19:31:47.046Z,16.90
2018-08-30T19:34:15.701Z,16.90
2018-08-30T19:36:44.664Z,16.90
2018-08-30T19:39:14.113Z,16.80
2018-08-30T19:41:43.042Z,16.80
2018-08-30T19:44:11.560Z,16.80
2018-08-30T19:46:40.224Z,16.80
2018-08-30T19:49:08.752Z,16.80
2018-08-30T19:51:37.475Z,16.90
2018-08-30T19:54:06.227Z,16.80
2018-08-30T19:56:35.535Z,16.80
2018-08-30T19:59:04.089Z,16.70
2018-08-30T20:01:32.639Z,16.70
2018-08-30T20:04:01.324Z,16.60
2018-08-30T20:06:29.851Z,16.60
2018-08-30T20:08:58.461Z,16.50
2018-08-30T20:11:26.964Z,16.50
2018-08-30T20:13:55.629Z,16.50
2018-08-30T20:16:24.282Z,16.50
2018-08-30T20:18:53.140Z,16.50
2018-08-30T20:21:21.724Z,15.90
2018-08-30T20:23:50.337Z,16.50
2018-08-30T20:26:18.912Z,16.40
2018-08-30T20:28:47.673Z,16.40
2018-08-30T20:31:16.497Z,16.40
2018-08-30T20:33:45.284Z,16.30
2018-08-30T20:36:14.206Z,16.40
2018-08-30T20:38:42.894Z,16.30
2018-08-30T20:41:11.507Z,16.30
2018-08-30T20:43:40.119Z,16.20
2018-08-30T20:46:08.666Z,16.20
2018-08-30T20:48:37.221Z,16.10
2018-08-30T20:51:06.225Z,15.90
2018-08-30T20:53:35.031Z,16.00
2018-08-30T20:56:03.564Z,16.00
2018-08-30T20:58:32.241Z,16.00
2018-08-30T21:01:00.828Z,16.00
2018-08-30T21:03:29.479Z,16.10
2018-08-30T21:05:58.227Z,16.00
2018-08-30T21:08:26.937Z,16.00
2018-08-30T21:10:55.633Z,16.00
2018-08-30T21:13:24.139Z,15.90
2018-08-30T21:15:52.636Z,15.90
2018-08-30T21:18:21.260Z,15.90
2018-08-30T21:20:49.833Z,15.90
2018-08-30T21:23:18.448Z,15.90
2018-08-30T21:25:47.100Z,15.90
2018-08-30T21:28:15.674Z,15.90
2018-08-30T21:30:44.258Z,16.00
2018-08-30T21:33:12.867Z,16.00
2018-08-30T21:35:41.442Z,16.00
2018-08-30T21:38:10.049Z,16.00
2018-08-30T21:40:38.580Z,16.00
2018-08-30T21:43:07.488Z,16.00
2018-08-30T21:45:36.121Z,16.10
2018-08-30T21:48:04.871Z,16.10
2018-08-30T21:50:33.401Z,16.10
2018-08-30T21:53:02.105Z,16.10
2018-08-30T21:55:30.602Z,16.20
2018-08-30T21:57:59.096Z,16.20
2018-08-30T22:00:28.596Z,16.20
2018-08-30T22:02:57.347Z,16.10
2018-08-30T22:05:26.175Z,16.10
2018-08-30T22:07:54.982Z,16.10
2018-08-30T22:10:23.646Z,16.00
2018-08-30T22:12:52.383Z,16.10
2018-08-30T22:15:21.068Z,16.00
2018-08-30T22:17:49.588Z,16.00
2018-08-30T22:20:18.194Z,16.00
2018-08-30T22:22:46.675Z,16.00
2018-08-30T22:25:15.274Z,16.00
2018-08-30T22:27:43.823Z,16.00
2018-08-30T22:30:12.422Z,16.00
2018-08-30T22:32:41.082Z,16.00
2018-08-30T22:35:09.742Z,16.00
2018-08-30T22:37:38.736Z,16.00
2018-08-30T22:40:07.668Z,16.00
2018-08-30T22:42:36.320Z,16.00
2018-08-30T22:45:05.090Z,16.10
2018-08-30T22:47:34.194Z,16.10
2018-08-30T22:50:02.896Z,16.10
2018-08-30T22:52:31.375Z,16.00
2018-08-30T22:54:59.978Z,16.00
2018-08-30T22:57:28.537Z,16.00
2018-08-30T22:59:57.115Z,16.00
2018-08-30T23:02:25.771Z,15.90
2018-08-30T23:04:54.290Z,15.90
2018-08-30T23:07:22.871Z,15.90
2018-08-30T23:09:51.438Z,15.90
2018-08-30T23:12:20.120Z,15.80
2018-08-30T23:14:48.679Z,15.70
2018-08-30T23:17:17.244Z,15.70
2018-08-30T23:19:45.866Z,15.70
2018-08-30T23:22:14.722Z,15.60
2018-08-30T23:24:43.319Z,15.70
2018-08-30T23:27:11.832Z,15.70
2018-08-30T23:29:40.483Z,15.60
2018-08-30T23:32:09.073Z,15.60
2018-08-30T23:34:37.666Z,15.50
2018-08-30T23:37:06.766Z,15.50
2018-08-30T23:39:35.287Z,15.40
2018-08-30T23:42:03.799Z,15.40
2018-08-30T23:44:32.355Z,15.30
2018-08-30T23:47:01.028Z,15.30
2018-08-30T23:49:29.596Z,15.20
2018-08-30T23:51:58.202Z,15.20
2018-08-30T23:54:27.136Z,15.20
2018-08-30T23:56:55.643Z,15.20
